sensor_id;sensor_type;location;lat;lon;timestamp;P1;durP1;ratioP1;P2;durP2;ratioP2
18732;SDS011;9495;51.210;2.934;2023-02-11T00:01:18;24.10;;;8.23;;
18732;SDS011;9495;51.210;2.934;2023-02-11T00:03:49;26.17;;;9.60;;
18732;SDS011;9495;51.210;2.934;2023-02-11T00:06:17;25.00;;;10.10;;
18732;SDS011;9495;51.210;2.934;2023-02-11T00:08:47;19.27;;;9.83;;
18732;SDS011;9495;51.210;2.934;2023-02-11T00:11:16;23.80;;;9.67;;
18732;SDS011;9495;51.210;2.934;2023-02-11T00:13:46;26.27;;;10.47;;
18732;SDS011;9495;51.210;2.934;2023-02-11T00:16:16;23.87;;;10.63;;
18732;SDS011;9495;51.210;2.934;2023-02-11T00:18:46;27.47;;;11.13;;
18732;SDS011;9495;51.210;2.934;2023-02-11T00:21:16;30.17;;;11.27;;
18732;SDS011;9495;51.210;2.934;2023-02-11T00:23:47;29.23;;;11.03;;
18732;SDS011;9495;51.210;2.934;2023-02-11T00:26:17;32.60;;;13.23;;
18732;SDS011;9495;51.210;2.934;2023-02-11T00:28:46;28.73;;;12.60;;
18732;SDS011;9495;51.210;2.934;2023-02-11T00:31:16;27.03;;;12.63;;
18732;SDS011;9495;51.210;2.934;2023-02-11T00:33:46;30.77;;;12.93;;
18732;SDS011;9495;51.210;2.934;2023-02-11T00:36:15;31.10;;;16.63;;
18732;SDS011;9495;51.210;2.934;2023-02-11T00:38:45;27.10;;;14.63;;
18732;SDS011;9495;51.210;2.934;2023-02-11T00:41:16;28.50;;;11.83;;
18732;SDS011;9495;51.210;2.934;2023-02-11T00:43:47;27.40;;;12.70;;
18732;SDS011;9495;51.210;2.934;2023-02-11T00:46:15;29.50;;;12.70;;
18732;SDS011;9495;51.210;2.934;2023-02-11T00:48:44;31.17;;;11.93;;
18732;SDS011;9495;51.210;2.934;2023-02-11T00:51:12;30.57;;;13.77;;
18732;SDS011;9495;51.210;2.934;2023-02-11T00:53:41;27.03;;;13.17;;
18732;SDS011;9495;51.210;2.934;2023-02-11T00:56:11;21.57;;;13.37;;
18732;SDS011;9495;51.210;2.934;2023-02-11T00:58:39;30.63;;;13.40;;
18732;SDS011;9495;51.210;2.934;2023-02-11T01:01:07;26.50;;;12.87;;
18732;SDS011;9495;51.210;2.934;2023-02-11T01:03:36;26.60;;;12.57;;
18732;SDS011;9495;51.210;2.934;2023-02-11T01:06:05;27.27;;;12.73;;
18732;SDS011;9495;51.210;2.934;2023-02-11T01:08:35;23.20;;;12.57;;
18732;SDS011;9495;51.210;2.934;2023-02-11T01:11:04;28.77;;;12.13;;
18732;SDS011;9495;51.210;2.934;2023-02-11T01:13:35;26.57;;;12.87;;
18732;SDS011;9495;51.210;2.934;2023-02-11T01:16:05;29.97;;;12.77;;
18732;SDS011;9495;51.210;2.934;2023-02-11T01:18:34;27.97;;;13.03;;
18732;SDS011;9495;51.210;2.934;2023-02-11T01:21:03;32.67;;;12.60;;
18732;SDS011;9495;51.210;2.934;2023-02-11T01:23:32;32.27;;;13.20;;
18732;SDS011;9495;51.210;2.934;2023-02-11T01:26:00;25.27;;;13.00;;
18732;SDS011;9495;51.210;2.934;2023-02-11T01:28:28;27.87;;;11.93;;
18732;SDS011;9495;51.210;2.934;2023-02-11T01:31:00;29.57;;;12.27;;
18732;SDS011;9495;51.210;2.934;2023-02-11T01:33:29;25.97;;;11.97;;
18732;SDS011;9495;51.210;2.934;2023-02-11T01:35:59;26.23;;;11.40;;
18732;SDS011;9495;51.210;2.934;2023-02-11T01:38:28;28.90;;;10.23;;
18732;SDS011;9495;51.210;2.934;2023-02-11T01:40:57;23.43;;;10.70;;
18732;SDS011;9495;51.210;2.934;2023-02-11T01:43:28;32.87;;;11.20;;
18732;SDS011;9495;51.210;2.934;2023-02-11T01:46:02;31.73;;;11.60;;
18732;SDS011;9495;51.210;2.934;2023-02-11T01:48:41;34.03;;;10.87;;
18732;SDS011;9495;51.210;2.934;2023-02-11T01:51:12;27.17;;;10.10;;
18732;SDS011;9495;51.210;2.934;2023-02-11T01:53:43;31.00;;;8.90;;
18732;SDS011;9495;51.210;2.934;2023-02-11T01:56:31;28.97;;;8.73;;
18732;SDS011;9495;51.210;2.934;2023-02-11T01:59:21;31.40;;;8.47;;
18732;SDS011;9495;51.210;2.934;2023-02-11T02:01:57;31.07;;;7.33;;
18732;SDS011;9495;51.210;2.934;2023-02-11T02:04:32;35.30;;;7.20;;
18732;SDS011;9495;51.210;2.934;2023-02-11T02:07:07;26.10;;;6.93;;
18732;SDS011;9495;51.210;2.934;2023-02-11T02:09:39;33.90;;;7.10;;
18732;SDS011;9495;51.210;2.934;2023-02-11T02:12:10;28.87;;;6.70;;
18732;SDS011;9495;51.210;2.934;2023-02-11T02:14:39;33.43;;;7.27;;
18732;SDS011;9495;51.210;2.934;2023-02-11T02:17:10;34.17;;;7.60;;
18732;SDS011;9495;51.210;2.934;2023-02-11T02:26:01;34.37;;;7.67;;
18732;SDS011;9495;51.210;2.934;2023-02-11T02:29:09;36.27;;;7.23;;
18732;SDS011;9495;51.210;2.934;2023-02-11T02:34:57;36.93;;;7.37;;
18732;SDS011;9495;51.210;2.934;2023-02-11T02:37:33;36.50;;;8.50;;
18732;SDS011;9495;51.210;2.934;2023-02-11T02:40:05;42.07;;;7.30;;
18732;SDS011;9495;51.210;2.934;2023-02-11T02:42:38;45.53;;;9.20;;
18732;SDS011;9495;51.210;2.934;2023-02-11T02:45:08;40.17;;;7.77;;
18732;SDS011;9495;51.210;2.934;2023-02-11T02:47:40;41.23;;;8.67;;
18732;SDS011;9495;51.210;2.934;2023-02-11T02:50:08;39.80;;;9.43;;
18732;SDS011;9495;51.210;2.934;2023-02-11T02:52:40;38.07;;;8.87;;
18732;SDS011;9495;51.210;2.934;2023-02-11T02:55:19;40.23;;;10.30;;
18732;SDS011;9495;51.210;2.934;2023-02-11T02:58:13;45.67;;;10.70;;
18732;SDS011;9495;51.210;2.934;2023-02-11T03:00:58;38.60;;;10.43;;
18732;SDS011;9495;51.210;2.934;2023-02-11T03:03:38;50.03;;;10.00;;
18732;SDS011;9495;51.210;2.934;2023-02-11T03:06:12;45.33;;;10.40;;
18732;SDS011;9495;51.210;2.934;2023-02-11T03:08:45;36.27;;;11.70;;
18732;SDS011;9495;51.210;2.934;2023-02-11T03:11:17;49.67;;;9.90;;
18732;SDS011;9495;51.210;2.934;2023-02-11T03:13:48;40.80;;;9.57;;
18732;SDS011;9495;51.210;2.934;2023-02-11T03:16:18;43.70;;;9.30;;
18732;SDS011;9495;51.210;2.934;2023-02-11T03:18:52;40.30;;;9.63;;
18732;SDS011;9495;51.210;2.934;2023-02-11T03:21:25;31.83;;;9.27;;
18732;SDS011;9495;51.210;2.934;2023-02-11T03:23:55;36.57;;;9.27;;
18732;SDS011;9495;51.210;2.934;2023-02-11T03:26:27;34.53;;;8.77;;
18732;SDS011;9495;51.210;2.934;2023-02-11T03:29:01;40.57;;;10.73;;
18732;SDS011;9495;51.210;2.934;2023-02-11T03:31:35;34.73;;;10.30;;
18732;SDS011;9495;51.210;2.934;2023-02-11T03:34:08;36.23;;;10.53;;
18732;SDS011;9495;51.210;2.934;2023-02-11T03:36:40;37.43;;;10.70;;
18732;SDS011;9495;51.210;2.934;2023-02-11T03:39:12;35.40;;;9.67;;
18732;SDS011;9495;51.210;2.934;2023-02-11T03:41:44;36.57;;;10.10;;
18732;SDS011;9495;51.210;2.934;2023-02-11T03:44:15;28.60;;;9.10;;
18732;SDS011;9495;51.210;2.934;2023-02-11T03:46:47;29.57;;;11.20;;
18732;SDS011;9495;51.210;2.934;2023-02-11T03:49:19;35.40;;;11.50;;
18732;SDS011;9495;51.210;2.934;2023-02-11T03:51:50;43.40;;;13.20;;
18732;SDS011;9495;51.210;2.934;2023-02-11T03:54:22;43.73;;;12.10;;
18732;SDS011;9495;51.210;2.934;2023-02-11T03:56:55;36.23;;;10.53;;
18732;SDS011;9495;51.210;2.934;2023-02-11T03:59:26;35.80;;;9.80;;
18732;SDS011;9495;51.210;2.934;2023-02-11T04:01:54;31.47;;;9.13;;
18732;SDS011;9495;51.210;2.934;2023-02-11T04:04:26;30.03;;;10.03;;
18732;SDS011;9495;51.210;2.934;2023-02-11T04:06:54;33.87;;;9.77;;
18732;SDS011;9495;51.210;2.934;2023-02-11T04:09:23;32.90;;;9.30;;
18732;SDS011;9495;51.210;2.934;2023-02-11T04:11:51;30.10;;;8.67;;
18732;SDS011;9495;51.210;2.934;2023-02-11T04:14:19;40.00;;;8.37;;
18732;SDS011;9495;51.210;2.934;2023-02-11T04:16:48;31.10;;;9.67;;
18732;SDS011;9495;51.210;2.934;2023-02-11T04:19:16;26.00;;;7.93;;
18732;SDS011;9495;51.210;2.934;2023-02-11T04:21:46;36.30;;;10.27;;
18732;SDS011;9495;51.210;2.934;2023-02-11T04:24:15;35.17;;;9.00;;
18732;SDS011;9495;51.210;2.934;2023-02-11T04:26:43;28.63;;;9.27;;
18732;SDS011;9495;51.210;2.934;2023-02-11T04:29:12;27.90;;;8.97;;
18732;SDS011;9495;51.210;2.934;2023-02-11T04:31:40;41.07;;;10.97;;
18732;SDS011;9495;51.210;2.934;2023-02-11T04:34:09;34.97;;;11.47;;
18732;SDS011;9495;51.210;2.934;2023-02-11T04:36:38;39.40;;;11.80;;
18732;SDS011;9495;51.210;2.934;2023-02-11T04:39:07;41.53;;;13.20;;
18732;SDS011;9495;51.210;2.934;2023-02-11T04:41:36;39.03;;;13.63;;
18732;SDS011;9495;51.210;2.934;2023-02-11T04:44:04;40.37;;;16.20;;
18732;SDS011;9495;51.210;2.934;2023-02-11T04:46:32;58.50;;;16.43;;
18732;SDS011;9495;51.210;2.934;2023-02-11T04:49:01;40.70;;;15.70;;
18732;SDS011;9495;51.210;2.934;2023-02-11T04:51:30;39.60;;;16.40;;
18732;SDS011;9495;51.210;2.934;2023-02-11T04:53:58;42.93;;;16.20;;
18732;SDS011;9495;51.210;2.934;2023-02-11T04:56:28;47.10;;;17.87;;
18732;SDS011;9495;51.210;2.934;2023-02-11T04:58:56;48.80;;;19.13;;
18732;SDS011;9495;51.210;2.934;2023-02-11T05:01:24;48.57;;;19.07;;
18732;SDS011;9495;51.210;2.934;2023-02-11T05:03:53;44.53;;;19.27;;
18732;SDS011;9495;51.210;2.934;2023-02-11T05:06:21;48.20;;;19.37;;
18732;SDS011;9495;51.210;2.934;2023-02-11T05:08:50;51.37;;;19.20;;
18732;SDS011;9495;51.210;2.934;2023-02-11T05:11:19;41.47;;;19.83;;
18732;SDS011;9495;51.210;2.934;2023-02-11T05:13:50;51.67;;;20.90;;
18732;SDS011;9495;51.210;2.934;2023-02-11T05:16:19;48.60;;;20.50;;
18732;SDS011;9495;51.210;2.934;2023-02-11T05:18:47;48.10;;;21.53;;
18732;SDS011;9495;51.210;2.934;2023-02-11T05:21:18;48.10;;;21.17;;
18732;SDS011;9495;51.210;2.934;2023-02-11T05:23:47;52.13;;;19.67;;
18732;SDS011;9495;51.210;2.934;2023-02-11T05:26:15;47.30;;;22.63;;
18732;SDS011;9495;51.210;2.934;2023-02-11T05:28:44;50.30;;;20.73;;
18732;SDS011;9495;51.210;2.934;2023-02-11T05:31:14;61.80;;;22.40;;
18732;SDS011;9495;51.210;2.934;2023-02-11T05:33:44;53.03;;;23.40;;
18732;SDS011;9495;51.210;2.934;2023-02-11T05:36:12;48.43;;;23.63;;
18732;SDS011;9495;51.210;2.934;2023-02-11T05:38:42;52.37;;;23.03;;
18732;SDS011;9495;51.210;2.934;2023-02-11T05:41:10;64.77;;;26.40;;
18732;SDS011;9495;51.210;2.934;2023-02-11T05:43:39;64.03;;;26.23;;
18732;SDS011;9495;51.210;2.934;2023-02-11T05:46:07;64.67;;;26.87;;
18732;SDS011;9495;51.210;2.934;2023-02-11T05:48:37;64.07;;;29.27;;
18732;SDS011;9495;51.210;2.934;2023-02-11T05:51:05;70.53;;;30.70;;
18732;SDS011;9495;51.210;2.934;2023-02-11T05:53:34;75.10;;;31.33;;
18732;SDS011;9495;51.210;2.934;2023-02-11T05:56:03;79.60;;;32.80;;
18732;SDS011;9495;51.210;2.934;2023-02-11T05:58:31;73.03;;;31.37;;
18732;SDS011;9495;51.210;2.934;2023-02-11T06:01:00;79.73;;;32.27;;
18732;SDS011;9495;51.210;2.934;2023-02-11T06:03:28;81.67;;;35.33;;
18732;SDS011;9495;51.210;2.934;2023-02-11T06:05:58;79.60;;;35.67;;
18732;SDS011;9495;51.210;2.934;2023-02-11T06:08:26;91.17;;;34.87;;
18732;SDS011;9495;51.210;2.934;2023-02-11T06:10:55;86.20;;;36.90;;
18732;SDS011;9495;51.210;2.934;2023-02-11T06:13:23;88.20;;;38.40;;
18732;SDS011;9495;51.210;2.934;2023-02-11T06:15:55;93.93;;;38.93;;
18732;SDS011;9495;51.210;2.934;2023-02-11T06:18:24;89.33;;;37.10;;
18732;SDS011;9495;51.210;2.934;2023-02-11T06:20:52;93.30;;;39.40;;
18732;SDS011;9495;51.210;2.934;2023-02-11T06:23:22;104.93;;;40.20;;
18732;SDS011;9495;51.210;2.934;2023-02-11T06:25:52;99.00;;;40.53;;
18732;SDS011;9495;51.210;2.934;2023-02-11T06:28:21;96.77;;;40.37;;
18732;SDS011;9495;51.210;2.934;2023-02-11T06:30:49;99.00;;;40.60;;
18732;SDS011;9495;51.210;2.934;2023-02-11T06:33:18;108.80;;;41.93;;
18732;SDS011;9495;51.210;2.934;2023-02-11T06:35:47;98.70;;;41.13;;
18732;SDS011;9495;51.210;2.934;2023-02-11T06:38:16;108.33;;;42.33;;
18732;SDS011;9495;51.210;2.934;2023-02-11T06:40:47;120.97;;;43.80;;
18732;SDS011;9495;51.210;2.934;2023-02-11T06:43:16;117.30;;;44.93;;
18732;SDS011;9495;51.210;2.934;2023-02-11T06:45:44;120.67;;;43.70;;
18732;SDS011;9495;51.210;2.934;2023-02-11T06:48:19;111.90;;;42.00;;
18732;SDS011;9495;51.210;2.934;2023-02-11T06:50:48;115.17;;;43.40;;
18732;SDS011;9495;51.210;2.934;2023-02-11T06:53:16;110.53;;;44.20;;
18732;SDS011;9495;51.210;2.934;2023-02-11T06:55:44;115.03;;;43.13;;
18732;SDS011;9495;51.210;2.934;2023-02-11T06:58:14;116.67;;;43.17;;
18732;SDS011;9495;51.210;2.934;2023-02-11T07:00:43;122.60;;;44.57;;
18732;SDS011;9495;51.210;2.934;2023-02-11T07:03:11;121.63;;;46.70;;
18732;SDS011;9495;51.210;2.934;2023-02-11T07:05:41;122.50;;;46.73;;
18732;SDS011;9495;51.210;2.934;2023-02-11T07:08:09;137.83;;;48.13;;
18732;SDS011;9495;51.210;2.934;2023-02-11T07:10:37;134.87;;;49.90;;
18732;SDS011;9495;51.210;2.934;2023-02-11T07:13:06;136.73;;;49.33;;
18732;SDS011;9495;51.210;2.934;2023-02-11T07:15:36;137.30;;;49.40;;
18732;SDS011;9495;51.210;2.934;2023-02-11T07:18:05;146.43;;;51.77;;
18732;SDS011;9495;51.210;2.934;2023-02-11T07:20:33;141.60;;;50.20;;
18732;SDS011;9495;51.210;2.934;2023-02-11T07:23:01;136.97;;;49.63;;
18732;SDS011;9495;51.210;2.934;2023-02-11T07:25:30;139.70;;;51.43;;
18732;SDS011;9495;51.210;2.934;2023-02-11T07:27:58;135.50;;;49.43;;
18732;SDS011;9495;51.210;2.934;2023-02-11T07:30:27;134.43;;;50.00;;
18732;SDS011;9495;51.210;2.934;2023-02-11T07:32:57;127.23;;;48.03;;
18732;SDS011;9495;51.210;2.934;2023-02-11T07:35:25;128.43;;;48.93;;
18732;SDS011;9495;51.210;2.934;2023-02-11T07:37:54;115.87;;;45.30;;
18732;SDS011;9495;51.210;2.934;2023-02-11T07:40:22;123.60;;;44.80;;
18732;SDS011;9495;51.210;2.934;2023-02-11T07:42:50;121.90;;;44.40;;
18732;SDS011;9495;51.210;2.934;2023-02-11T07:45:19;119.03;;;41.57;;
18732;SDS011;9495;51.210;2.934;2023-02-11T07:47:47;115.03;;;41.03;;
18732;SDS011;9495;51.210;2.934;2023-02-11T07:50:17;114.37;;;41.43;;
18732;SDS011;9495;51.210;2.934;2023-02-11T07:52:46;106.43;;;42.37;;
18732;SDS011;9495;51.210;2.934;2023-02-11T07:55:14;108.90;;;43.17;;
18732;SDS011;9495;51.210;2.934;2023-02-11T07:57:42;104.80;;;43.57;;
18732;SDS011;9495;51.210;2.934;2023-02-11T08:00:11;106.07;;;42.50;;
18732;SDS011;9495;51.210;2.934;2023-02-11T08:02:40;101.53;;;39.50;;
18732;SDS011;9495;51.210;2.934;2023-02-11T08:05:09;97.83;;;38.93;;
18732;SDS011;9495;51.210;2.934;2023-02-11T08:07:38;96.60;;;40.13;;
18732;SDS011;9495;51.210;2.934;2023-02-11T08:10:07;95.07;;;42.38;;
18732;SDS011;9495;51.210;2.934;2023-02-11T08:12:36;89.70;;;40.60;;
18732;SDS011;9495;51.210;2.934;2023-02-11T08:15:04;94.13;;;38.67;;
18732;SDS011;9495;51.210;2.934;2023-02-11T08:17:33;97.07;;;37.60;;
18732;SDS011;9495;51.210;2.934;2023-02-11T08:20:02;93.40;;;36.97;;
18732;SDS011;9495;51.210;2.934;2023-02-11T08:22:31;91.77;;;36.93;;
18732;SDS011;9495;51.210;2.934;2023-02-11T08:25:01;87.00;;;36.83;;
18732;SDS011;9495;51.210;2.934;2023-02-11T08:27:29;86.13;;;35.03;;
18732;SDS011;9495;51.210;2.934;2023-02-11T08:29:58;78.83;;;34.07;;
18732;SDS011;9495;51.210;2.934;2023-02-11T08:32:27;82.40;;;30.57;;
18732;SDS011;9495;51.210;2.934;2023-02-11T08:34:55;75.90;;;33.03;;
18732;SDS011;9495;51.210;2.934;2023-02-11T08:37:24;74.50;;;32.77;;
18732;SDS011;9495;51.210;2.934;2023-02-11T08:39:52;75.30;;;29.70;;
18732;SDS011;9495;51.210;2.934;2023-02-11T08:42:22;74.40;;;32.90;;
18732;SDS011;9495;51.210;2.934;2023-02-11T08:44:50;64.87;;;31.00;;
18732;SDS011;9495;51.210;2.934;2023-02-11T08:47:19;67.83;;;31.30;;
18732;SDS011;9495;51.210;2.934;2023-02-11T08:49:47;71.53;;;30.67;;
18732;SDS011;9495;51.210;2.934;2023-02-11T08:52:16;69.73;;;31.67;;
18732;SDS011;9495;51.210;2.934;2023-02-11T08:54:44;64.17;;;29.87;;
18732;SDS011;9495;51.210;2.934;2023-02-11T08:57:13;72.80;;;31.60;;
18732;SDS011;9495;51.210;2.934;2023-02-11T08:59:43;67.63;;;32.63;;
18732;SDS011;9495;51.210;2.934;2023-02-11T09:02:12;58.33;;;30.20;;
18732;SDS011;9495;51.210;2.934;2023-02-11T09:04:40;58.67;;;29.37;;
18732;SDS011;9495;51.210;2.934;2023-02-11T09:07:09;58.57;;;29.87;;
18732;SDS011;9495;51.210;2.934;2023-02-11T09:09:37;58.80;;;28.57;;
18732;SDS011;9495;51.210;2.934;2023-02-11T09:12:06;63.03;;;28.77;;
18732;SDS011;9495;51.210;2.934;2023-02-11T09:14:35;58.10;;;28.33;;
18732;SDS011;9495;51.210;2.934;2023-02-11T09:17:05;52.53;;;28.47;;
18732;SDS011;9495;51.210;2.934;2023-02-11T09:19:33;58.77;;;27.93;;
18732;SDS011;9495;51.210;2.934;2023-02-11T09:22:02;51.53;;;25.50;;
18732;SDS011;9495;51.210;2.934;2023-02-11T09:24:30;52.80;;;26.43;;
18732;SDS011;9495;51.210;2.934;2023-02-11T09:26:59;51.30;;;26.13;;
18732;SDS011;9495;51.210;2.934;2023-02-11T09:29:27;51.97;;;26.90;;
18732;SDS011;9495;51.210;2.934;2023-02-11T09:31:55;48.33;;;23.83;;
18732;SDS011;9495;51.210;2.934;2023-02-11T09:34:25;49.17;;;25.47;;
18732;SDS011;9495;51.210;2.934;2023-02-11T09:36:53;50.53;;;26.03;;
18732;SDS011;9495;51.210;2.934;2023-02-11T09:39:22;54.00;;;26.00;;
18732;SDS011;9495;51.210;2.934;2023-02-11T09:44:55;51.07;;;27.33;;
18732;SDS011;9495;51.210;2.934;2023-02-11T09:47:27;54.93;;;27.33;;
18732;SDS011;9495;51.210;2.934;2023-02-11T09:50:00;50.53;;;24.93;;
18732;SDS011;9495;51.210;2.934;2023-02-11T09:52:34;51.17;;;24.57;;
18732;SDS011;9495;51.210;2.934;2023-02-11T09:55:15;48.47;;;25.07;;
18732;SDS011;9495;51.210;2.934;2023-02-11T09:57:47;49.27;;;25.23;;
18732;SDS011;9495;51.210;2.934;2023-02-11T10:00:18;51.20;;;23.93;;
18732;SDS011;9495;51.210;2.934;2023-02-11T10:02:57;48.63;;;24.53;;
18732;SDS011;9495;51.210;2.934;2023-02-11T10:05:47;37.93;;;21.77;;
18732;SDS011;9495;51.210;2.934;2023-02-11T10:08:27;48.63;;;24.07;;
18732;SDS011;9495;51.210;2.934;2023-02-11T10:11:04;41.53;;;22.37;;
18732;SDS011;9495;51.210;2.934;2023-02-11T10:13:55;48.07;;;23.07;;
18732;SDS011;9495;51.210;2.934;2023-02-11T10:16:32;46.53;;;22.80;;
18732;SDS011;9495;51.210;2.934;2023-02-11T10:19:21;39.03;;;21.77;;
18732;SDS011;9495;51.210;2.934;2023-02-11T10:22:05;40.03;;;21.93;;
18732;SDS011;9495;51.210;2.934;2023-02-11T10:24:37;40.73;;;21.73;;
18732;SDS011;9495;51.210;2.934;2023-02-11T10:27:11;37.13;;;20.83;;
18732;SDS011;9495;51.210;2.934;2023-02-11T10:29:45;41.80;;;20.97;;
18732;SDS011;9495;51.210;2.934;2023-02-11T10:32:22;39.60;;;21.97;;
18732;SDS011;9495;51.210;2.934;2023-02-11T10:34:59;40.17;;;20.63;;
18732;SDS011;9495;51.210;2.934;2023-02-11T10:37:31;43.07;;;20.93;;
18732;SDS011;9495;51.210;2.934;2023-02-11T10:39:59;43.87;;;21.43;;
18732;SDS011;9495;51.210;2.934;2023-02-11T10:42:28;40.53;;;20.60;;
18732;SDS011;9495;51.210;2.934;2023-02-11T10:44:57;43.70;;;21.27;;
18732;SDS011;9495;51.210;2.934;2023-02-11T10:47:30;41.07;;;22.93;;
18732;SDS011;9495;51.210;2.934;2023-02-11T10:50:09;41.90;;;23.30;;
18732;SDS011;9495;51.210;2.934;2023-02-11T10:52:47;38.73;;;22.20;;
18732;SDS011;9495;51.210;2.934;2023-02-11T10:55:16;42.70;;;23.57;;
18732;SDS011;9495;51.210;2.934;2023-02-11T10:57:52;39.10;;;22.27;;
18732;SDS011;9495;51.210;2.934;2023-02-11T11:00:25;38.53;;;22.60;;
18732;SDS011;9495;51.210;2.934;2023-02-11T11:02:59;42.67;;;22.73;;
18732;SDS011;9495;51.210;2.934;2023-02-11T11:05:30;40.87;;;22.77;;
18732;SDS011;9495;51.210;2.934;2023-02-11T11:08:01;45.57;;;22.17;;
18732;SDS011;9495;51.210;2.934;2023-02-11T11:10:36;36.43;;;20.27;;
18732;SDS011;9495;51.210;2.934;2023-02-11T11:13:25;38.67;;;21.53;;
18732;SDS011;9495;51.210;2.934;2023-02-11T11:16:13;42.67;;;17.70;;
18732;SDS011;9495;51.210;2.934;2023-02-11T11:18:44;38.20;;;20.30;;
18732;SDS011;9495;51.210;2.934;2023-02-11T11:21:14;39.20;;;22.13;;
18732;SDS011;9495;51.210;2.934;2023-02-11T11:23:47;35.03;;;20.07;;
18732;SDS011;9495;51.210;2.934;2023-02-11T11:26:18;44.20;;;21.37;;
18732;SDS011;9495;51.210;2.934;2023-02-11T11:28:52;34.03;;;19.07;;
18732;SDS011;9495;51.210;2.934;2023-02-11T11:31:27;31.90;;;20.13;;
18732;SDS011;9495;51.210;2.934;2023-02-11T11:33:58;39.00;;;20.17;;
18732;SDS011;9495;51.210;2.934;2023-02-11T11:36:33;38.10;;;20.97;;
18732;SDS011;9495;51.210;2.934;2023-02-11T11:39:14;34.17;;;19.23;;
18732;SDS011;9495;51.210;2.934;2023-02-11T11:41:54;32.77;;;19.20;;
18732;SDS011;9495;51.210;2.934;2023-02-11T11:44:25;31.77;;;19.17;;
18732;SDS011;9495;51.210;2.934;2023-02-11T11:47:06;37.40;;;19.03;;
18732;SDS011;9495;51.210;2.934;2023-02-11T11:49:46;38.67;;;19.73;;
18732;SDS011;9495;51.210;2.934;2023-02-11T11:52:19;38.17;;;16.83;;
18732;SDS011;9495;51.210;2.934;2023-02-11T11:55:02;30.90;;;16.37;;
18732;SDS011;9495;51.210;2.934;2023-02-11T11:57:36;38.77;;;16.47;;
18732;SDS011;9495;51.210;2.934;2023-02-11T12:00:08;30.10;;;16.87;;
18732;SDS011;9495;51.210;2.934;2023-02-11T12:02:49;31.90;;;17.07;;
18732;SDS011;9495;51.210;2.934;2023-02-11T12:05:41;31.50;;;15.73;;
18732;SDS011;9495;51.210;2.934;2023-02-11T12:08:17;35.90;;;16.23;;
18732;SDS011;9495;51.210;2.934;2023-02-11T12:10:55;33.13;;;16.27;;
18732;SDS011;9495;51.210;2.934;2023-02-11T12:13:41;29.93;;;15.60;;
18732;SDS011;9495;51.210;2.934;2023-02-11T12:16:18;30.20;;;15.03;;
18732;SDS011;9495;51.210;2.934;2023-02-11T12:21:54;33.70;;;15.63;;
18732;SDS011;9495;51.210;2.934;2023-02-11T12:24:34;27.93;;;15.03;;
18732;SDS011;9495;51.210;2.934;2023-02-11T12:27:19;29.53;;;15.00;;
18732;SDS011;9495;51.210;2.934;2023-02-11T12:30:01;28.77;;;15.33;;
18732;SDS011;9495;51.210;2.934;2023-02-11T12:32:41;33.50;;;15.67;;
18732;SDS011;9495;51.210;2.934;2023-02-11T12:35:30;22.73;;;15.00;;
18732;SDS011;9495;51.210;2.934;2023-02-11T12:38:15;28.70;;;15.47;;
18732;SDS011;9495;51.210;2.934;2023-02-11T12:40:51;32.90;;;15.03;;
18732;SDS011;9495;51.210;2.934;2023-02-11T12:43:30;29.87;;;13.63;;
18732;SDS011;9495;51.210;2.934;2023-02-11T12:49:00;23.60;;;13.93;;
18732;SDS011;9495;51.210;2.934;2023-02-11T12:51:53;25.80;;;14.03;;
18732;SDS011;9495;51.210;2.934;2023-02-11T12:54:30;22.87;;;14.20;;
18732;SDS011;9495;51.210;2.934;2023-02-11T12:57:05;27.53;;;14.00;;
18732;SDS011;9495;51.210;2.934;2023-02-11T12:59:43;27.07;;;14.40;;
18732;SDS011;9495;51.210;2.934;2023-02-11T13:02:20;24.43;;;13.13;;
18732;SDS011;9495;51.210;2.934;2023-02-11T13:04:57;24.73;;;13.23;;
18732;SDS011;9495;51.210;2.934;2023-02-11T13:07:32;21.17;;;13.00;;
18732;SDS011;9495;51.210;2.934;2023-02-11T13:10:04;24.67;;;13.47;;
18732;SDS011;9495;51.210;2.934;2023-02-11T13:12:44;21.63;;;13.67;;
18732;SDS011;9495;51.210;2.934;2023-02-11T13:15:34;25.67;;;13.10;;
18732;SDS011;9495;51.210;2.934;2023-02-11T13:18:04;21.93;;;12.80;;
18732;SDS011;9495;51.210;2.934;2023-02-11T13:20:46;22.80;;;12.73;;
18732;SDS011;9495;51.210;2.934;2023-02-11T13:23:21;21.10;;;12.97;;
18732;SDS011;9495;51.210;2.934;2023-02-11T13:25:57;26.10;;;12.17;;
18732;SDS011;9495;51.210;2.934;2023-02-11T13:28:35;24.47;;;12.60;;
18732;SDS011;9495;51.210;2.934;2023-02-11T13:31:13;26.77;;;13.10;;
18732;SDS011;9495;51.210;2.934;2023-02-11T13:33:45;22.10;;;12.43;;
18732;SDS011;9495;51.210;2.934;2023-02-11T13:36:16;22.13;;;13.03;;
18732;SDS011;9495;51.210;2.934;2023-02-11T13:38:53;22.57;;;12.13;;
18732;SDS011;9495;51.210;2.934;2023-02-11T13:41:30;23.33;;;12.70;;
18732;SDS011;9495;51.210;2.934;2023-02-11T13:44:02;24.63;;;12.53;;
18732;SDS011;9495;51.210;2.934;2023-02-11T13:46:50;18.80;;;11.30;;
18732;SDS011;9495;51.210;2.934;2023-02-11T13:49:26;24.17;;;12.77;;
18732;SDS011;9495;51.210;2.934;2023-02-11T13:51:58;25.97;;;12.60;;
18732;SDS011;9495;51.210;2.934;2023-02-11T13:54:29;22.77;;;12.50;;
18732;SDS011;9495;51.210;2.934;2023-02-11T13:57:14;19.13;;;11.93;;
18732;SDS011;9495;51.210;2.934;2023-02-11T13:59:52;23.37;;;12.17;;
18732;SDS011;9495;51.210;2.934;2023-02-11T14:02:32;25.27;;;13.53;;
18732;SDS011;9495;51.210;2.934;2023-02-11T14:05:23;20.40;;;12.87;;
18732;SDS011;9495;51.210;2.934;2023-02-11T14:08:13;26.07;;;12.10;;
18732;SDS011;9495;51.210;2.934;2023-02-11T14:11:05;21.60;;;12.97;;
18732;SDS011;9495;51.210;2.934;2023-02-11T14:16:28;24.57;;;12.93;;
18732;SDS011;9495;51.210;2.934;2023-02-11T14:19:05;25.10;;;12.93;;
18732;SDS011;9495;51.210;2.934;2023-02-11T14:21:35;22.00;;;12.93;;
18732;SDS011;9495;51.210;2.934;2023-02-11T14:27:29;25.23;;;12.57;;
18732;SDS011;9495;51.210;2.934;2023-02-11T14:36:33;21.87;;;12.20;;
18732;SDS011;9495;51.210;2.934;2023-02-11T14:39:16;22.27;;;12.70;;
18732;SDS011;9495;51.210;2.934;2023-02-11T14:41:55;21.80;;;11.63;;
18732;SDS011;9495;51.210;2.934;2023-02-11T14:44:24;23.70;;;12.83;;
18732;SDS011;9495;51.210;2.934;2023-02-11T14:46:55;28.50;;;13.07;;
18732;SDS011;9495;51.210;2.934;2023-02-11T14:49:25;23.80;;;13.10;;
18732;SDS011;9495;51.210;2.934;2023-02-11T14:51:57;29.57;;;13.67;;
18732;SDS011;9495;51.210;2.934;2023-02-11T14:54:30;26.07;;;12.33;;
18732;SDS011;9495;51.210;2.934;2023-02-11T14:57:06;22.13;;;12.23;;
18732;SDS011;9495;51.210;2.934;2023-02-11T14:59:38;27.53;;;12.17;;
18732;SDS011;9495;51.210;2.934;2023-02-11T15:02:18;23.13;;;12.60;;
18732;SDS011;9495;51.210;2.934;2023-02-11T15:04:48;20.27;;;12.17;;
18732;SDS011;9495;51.210;2.934;2023-02-11T15:07:18;21.23;;;12.60;;
18732;SDS011;9495;51.210;2.934;2023-02-11T15:09:46;20.63;;;12.83;;
18732;SDS011;9495;51.210;2.934;2023-02-11T15:12:18;26.70;;;13.43;;
18732;SDS011;9495;51.210;2.934;2023-02-11T15:14:51;21.77;;;13.17;;
18732;SDS011;9495;51.210;2.934;2023-02-11T15:17:22;24.40;;;13.20;;
18732;SDS011;9495;51.210;2.934;2023-02-11T15:19:52;24.97;;;12.50;;
18732;SDS011;9495;51.210;2.934;2023-02-11T15:22:26;23.93;;;13.37;;
18732;SDS011;9495;51.210;2.934;2023-02-11T15:24:58;21.17;;;11.97;;
18732;SDS011;9495;51.210;2.934;2023-02-11T15:27:36;23.23;;;12.70;;
18732;SDS011;9495;51.210;2.934;2023-02-11T15:30:16;18.43;;;12.67;;
18732;SDS011;9495;51.210;2.934;2023-02-11T15:32:53;20.90;;;12.63;;
18732;SDS011;9495;51.210;2.934;2023-02-11T15:35:26;18.47;;;12.40;;
18732;SDS011;9495;51.210;2.934;2023-02-11T15:37:57;20.83;;;11.80;;